Latest Weather Observations for Cunderdin Airport

IDW60801

Issued at 10:02 pm WST Monday 30 March 2015 (issued every 30 minutes, with the page automatically refreshed every 10 minutes)

About weather observations | Map of weather stations | Latest weather observations for WA | Other Formats
Station Details ID: 010286 Name: CUNDERDIN AIRFIELD Lat: -31.62 Lon: 117.22 Height: 216.7 m
Data from the previous 72 hours. | See also: Recent months at Cunderdin Airport
Date/Time
WST
Temp
°C
App
Temp
°C
Dew
Point
Rel
Hum
%
Delta-T
°C
Wind Press
QNH
hPa
Press
MSL
hPa
Rain
since 9 am
mm
Dir
 
Spd
km/h
Gust
km/h
Spd
kts
Gust
kts
30/10:00pm 20.0 21.4 18.7 92 0.8 NNW 9 13 5 7 1018.4 1017.5 0.2
30/09:30pm 20.1 20.8 18.0 88 1.3 N 11 15 6 8 1018.4 1017.5 0.2
30/09:00pm 20.0 20.3 18.0 88 1.2 N 13 17 7 9 1018.5 1017.6 0.2
30/08:30pm 20.4 19.3 17.8 85 1.6 N 20 22 11 12 1018.5 1017.6 0.2
30/08:00pm 20.6 19.6 18.0 85 1.6 N 20 28 11 15 1018.6 1017.7 0.2
30/07:30pm 20.9 18.1 18.1 84 1.8 N 30 37 16 20 1018.5 1017.6 0.0
30/07:00pm 21.0 17.7 18.4 85 1.6 N 33 44 18 24 1018.1 1017.2 0.0
30/06:30pm 22.0 18.6 17.6 76 2.7 N 32 41 17 22 1017.5 1016.5 0.0
30/06:00pm 24.9 20.5 15.2 54 5.9 N 32 43 17 23 1016.8 1015.8 0.0
30/05:30pm 27.2 21.7 11.7 38 9.0 NNW 32 39 17 21 1016.1 1015.1 0.0
30/05:00pm 27.9 22.7 12.7 39 9.0 NNW 32 39 17 21 1015.7 1014.7 0.0
30/04:30pm 28.9 24.9 11.9 35 9.9 NNW 24 32 13 17 1015.5 1014.5 0.0
30/04:00pm 29.7 25.1 11.2 31 10.7 NW 26 32 14 17 1015.1 1014.1 0.0
30/03:30pm 30.1 25.5 11.1 31 11.0 NNW 26 32 14 17 1014.8 1013.8 0.0
30/03:00pm 30.8 25.3 10.7 29 11.6 NNW 30 41 16 22 1014.8 1013.8 0.0
30/02:30pm 31.7 27.0 9.3 25 12.7 NNW 24 33 13 18 1014.7 1013.7 0.0
30/02:00pm 32.0 27.1 8.3 23 13.3 NNW 24 33 13 18 1014.7 1013.7 0.0
30/01:30pm 32.5 28.0 8.7 23 13.5 NW 22 30 12 16 1014.8 1013.8 0.0
30/01:00pm 32.9 27.9 9.7 24 13.3 N 26 35 14 19 1015.2 1014.2 0.0
30/12:30pm 31.8 26.5 9.9 26 12.6 N 28 39 15 21 1015.5 1014.5 0.0
30/12:00pm 31.1 26.3 10.4 28 11.9 N 26 33 14 18 1016.0 1015.0 0.0
30/11:30am 30.5 24.6 10.5 29 11.5 N 32 39 17 21 1016.4 1015.4 0.0
30/11:00am 30.3 24.2 10.3 29 11.5 N 33 43 18 23 1016.8 1015.8 0.0
30/10:30am 31.0 24.9 10.4 28 11.9 N 33 43 18 23 1017.0 1016.0 0.0
30/10:00am 29.1 25.9 9.8 30 10.9 N 17 26 9 14 1017.6 1016.7 0.0
30/09:30am 27.4 25.6 9.3 32 10.1 NE 9 13 5 7 1017.9 1017.0 0.0
30/09:00am 25.9 22.0 8.8 34 9.4 NNE 19 22 10 12 1017.9 1017.0 0.0
30/08:30am 23.6 22.1 9.2 40 7.8 ESE 7 11 4 6 1018.0 1017.1 0.0
30/08:00am 21.5 19.6 9.1 45 6.7 SE 9 13 5 7 1017.8 1016.9 0.0
30/07:30am 20.0 18.0 8.7 48 6.0 ESE 9 13 5 7 1017.6 1016.7 0.0
30/07:00am 18.5 15.7 8.7 53 5.1 E 13 15 7 8 1017.5 1016.5 0.0
30/06:30am 18.1 15.6 8.4 53 5.0 ESE 11 13 6 7 1017.2 1016.2 0.0
30/06:00am 18.0 15.9 8.3 53 5.0 ESE 9 11 5 6 1017.0 1016.0 0.0
30/05:30am 18.3 15.8 8.0 51 5.3 ESE 11 15 6 8 1016.8 1015.8 0.0
30/05:00am 17.6 15.1 8.2 54 4.8 E 11 15 6 8 1016.6 1015.6 0.0
30/04:30am 18.5 16.0 8.2 51 5.4 ESE 11 15 6 8 1016.3 1015.3 0.0
30/04:00am 17.9 15.9 8.5 54 4.9 ESE 9 13 5 7 1016.2 1015.2 0.0
30/03:30am 15.5 13.7 9.4 67 3.2 ESE 9 11 5 6 1016.3 1015.3 0.0
30/03:00am 14.9 13.6 9.9 72 2.6 ESE 7 9 4 5 1016.3 1015.3 0.0
30/02:30am 15.6 14.5 9.9 69 3.0 ESE 6 7 3 4 1016.5 1015.5 0.0
30/02:00am 14.2 13.2 10.2 77 2.1 ESE 6 7 3 4 1016.7 1015.7 0.0
30/01:30am 15.1 14.2 10.5 74 2.4 E 6 7 3 4 1017.2 1016.2 0.0
30/01:00am 16.0 15.1 10.5 70 2.9 ENE 6 6 3 3 1017.4 1016.4 0.0
30/12:30am 16.0 15.1 10.7 71 2.8 E 6 7 3 4 1017.6 1016.7 0.0
30/12:00am 15.6 14.5 10.8 73 2.6 ENE 7 7 4 4 1017.6 1016.7 0.0
 
Date/Time
WST
Temp
°C
App
Temp
°C
Dew
Point
Rel
Hum
%
Delta-T
°C
Wind Press
QNH
hPa
Press
MSL
hPa
Rain
since 9 am
mm
Dir
 
Spd
km/h
Gust
km/h
Spd
kts
Gust
kts
29/11:30pm 16.3 15.5 11.0 71 2.9 ESE 6 7 3 4 1017.7 1016.8 0.0
29/11:00pm 17.0 16.1 10.6 66 3.4 ENE 6 6 3 3 1017.9 1017.0 0.0
29/10:30pm 17.5 16.4 10.6 64 3.7 E 7 7 4 4 1018.2 1017.3 0.0
29/10:00pm 17.7 16.6 10.8 64 3.7 ENE 7 9 4 5 1018.2 1017.3 0.0
29/09:30pm 18.6 17.6 10.9 61 4.2 E 7 7 4 4 1018.4 1017.5 0.0
29/09:00pm 18.8 17.8 10.9 60 4.3 E 7 9 4 5 1018.4 1017.5 0.0
29/08:30pm 19.9 19.1 10.9 56 5.0 E 6 7 3 4 1018.4 1017.5 0.0
29/08:00pm 20.7 19.8 10.8 53 5.5 ESE 6 9 3 5 1018.3 1017.4 0.0
29/07:30pm 22.8 22.1 9.9 44 7.1 ESE 4 7 2 4 1018.2 1017.3 0.0
29/07:00pm 25.6 24.1 8.6 34 9.3 ESE 6 7 3 4 1018.0 1017.1 0.0
29/06:30pm 26.5 25.0 8.5 32 9.8 ENE 6 7 3 4 1017.9 1017.0 0.0
29/06:00pm 27.2 24.7 8.1 30 10.4 NE 11 13 6 7 1017.9 1017.0 0.0
29/05:30pm 29.0 26.9 8.1 27 11.5 NE 9 13 5 7 1017.7 1016.8 0.0
29/05:00pm 29.7 27.7 7.0 24 12.3 N 7 11 4 6 1017.7 1016.8 0.0
29/04:30pm 30.0 27.6 7.2 24 12.4 NNE 9 15 5 8 1017.9 1017.0 0.0
29/04:00pm 30.4 27.5 8.2 25 12.3 E 13 17 7 9 1017.7 1016.8 0.0
29/03:30pm 30.3 28.7 8.7 26 12.1 E 7 17 4 9 1017.8 1016.9 0.0
29/03:00pm 30.5 28.5 8.8 26 12.2 NE 9 17 5 9 1018.0 1017.1 0.0
29/02:30pm 30.9 29.0 9.2 26 12.3 NE 9 20 5 11 1018.1 1017.2 0.0
29/02:00pm 30.5 28.3 9.4 27 11.9 NNE 11 19 6 10 1018.4 1017.5 0.0
29/01:30pm 29.9 27.3 9.4 28 11.6 N 13 20 7 11 1018.7 1017.8 0.0
29/01:00pm 30.0 27.6 10.0 29 11.4 NNW 13 26 7 14 1019.1 1018.2 0.0
29/12:30pm 29.3 27.2 9.9 30 11.0 NNW 11 17 6 9 1019.5 1018.5 0.0
29/12:00pm 29.6 27.2 10.2 30 11.1 N 13 20 7 11 1020.0 1019.0 0.0
29/11:30am 29.0 26.4 10.6 32 10.6 NNE 15 24 8 13 1020.6 1019.6 0.0
29/11:00am 26.9 24.3 10.6 36 9.2 N 15 26 8 14 1021.0 1020.0 0.0
29/10:30am 26.8 24.2 12.1 40 8.6 NNE 17 24 9 13 1021.5 1020.5 0.0
29/10:00am 25.3 23.6 12.5 45 7.4 ENE 13 19 7 10 1021.8 1020.9 0.0
29/09:30am 23.0 20.7 12.9 53 5.9 ENE 17 20 9 11 1021.9 1021.0 0.0
29/09:00am 21.3 18.8 13.5 61 4.5 ENE 19 28 10 15 1022.0 1021.1 0.0
29/08:30am 19.3 17.6 13.5 69 3.3 E 15 19 8 10 1022.0 1021.1 0.0
29/08:00am 17.7 16.4 13.6 77 2.3 E 13 19 7 10 1021.9 1021.0 0.0
29/07:30am 16.5 15.5 13.4 82 1.8 ESE 11 15 6 8 1021.9 1021.0 0.0
29/07:00am 15.5 14.8 13.2 86 1.3 ESE 9 13 5 7 1021.6 1020.7 0.0
29/06:30am 14.7 13.8 12.7 88 1.1 ESE 9 17 5 9 1021.4 1020.4 0.0
29/06:00am 14.7 13.4 12.6 87 1.2 ESE 11 15 6 8 1021.2 1020.2 0.0
29/05:30am 14.7 13.7 12.2 85 1.4 ESE 9 13 5 7 1021.0 1020.0 0.0
29/05:00am 15.4 14.0 12.3 82 1.7 ESE 11 17 6 9 1020.6 1019.6 0.0
29/04:30am 15.5 13.9 11.7 78 2.1 ESE 11 15 6 8 1020.4 1019.4 0.0
29/04:00am 15.4 13.8 11.4 77 2.2 ESE 11 15 6 8 1020.3 1019.3 0.0
29/03:30am 13.9 12.8 10.7 81 1.7 SE 7 9 4 5 1020.3 1019.3 0.0
29/03:00am 13.3 13.6 11.0 86 1.2 CALM 0 0 0 0 1020.5 1019.5 0.0
29/02:30am 13.0 12.2 11.2 89 1.0 NW 6 11 3 6 1020.4 1019.4 0.0
29/02:00am 13.4 12.4 10.9 85 1.3 E 7 9 4 5 1020.2 1019.2 0.0
29/01:30am 13.8 12.5 11.3 85 1.3 ENE 9 11 5 6 1020.3 1019.3 0.0
29/01:00am 13.8 13.1 11.5 86 1.2 ENE 6 7 3 4 1020.1 1019.1 0.0
29/12:30am 14.4 14.9 11.6 83 1.5 CALM 0 0 0 0 1020.2 1019.2 0.0
29/12:00am 14.2 13.9 11.4 83 1.5 NNE 4 7 2 4 1020.3 1019.3 0.0
 
Date/Time
WST
Temp
°C
App
Temp
°C
Dew
Point
Rel
Hum
%
Delta-T
°C
Wind Press
QNH
hPa
Press
MSL
hPa
Rain
since 9 am
mm
Dir
 
Spd
km/h
Gust
km/h
Spd
kts
Gust
kts
28/11:30pm 14.2 13.7 11.9 86 1.3 NNE 6 7 3 4 1020.3 1019.3 0.0
28/11:00pm 14.9 14.4 11.9 82 1.6 NE 6 6 3 3 1020.3 1019.3 0.0
28/10:30pm 16.1 16.4 12.1 77 2.2 NE 2 6 1 3 1020.4 1019.4 0.0
28/10:00pm 16.6 15.9 11.3 71 2.9 ENE 6 7 3 4 1020.5 1019.5 0.0
28/09:30pm 17.5 16.3 11.5 68 3.3 E 9 9 5 5 1020.5 1019.5 0.0
28/09:00pm 19.4 18.0 10.9 58 4.7 E 9 9 5 5 1020.5 1019.5 0.0
28/08:30pm 21.0 19.4 10.2 50 5.9 SE 9 13 5 7 1020.4 1019.4 0.0
28/08:00pm 21.1 19.1 10.3 50 5.9 ESE 11 13 6 7 1020.1 1019.1 0.0
28/07:30pm 22.3 20.7 10.1 46 6.7 SE 9 11 5 6 1019.8 1018.8 0.0
28/07:00pm 22.6 21.3 10.1 45 6.9 SE 7 9 4 5 1019.3 1018.3 0.0
28/06:30pm 23.7 22.4 10.0 42 7.6 SE 7 11 4 6 1018.9 1018.0 0.0
28/06:00pm 25.0 23.2 9.3 37 8.6 SE 9 13 5 7 1018.5 1017.6 0.0
28/05:30pm 26.2 24.7 9.1 34 9.4 SE 7 13 4 7 1018.3 1017.4 0.0
28/05:00pm 26.7 24.5 9.5 34 9.6 E 11 17 6 9 1018.2 1017.3 0.0
28/04:30pm 27.2 25.3 9.1 32 10.0 SSE 9 17 5 9 1018.1 1017.2 0.0
28/04:00pm 27.6 25.5 9.9 33 9.9 S 11 15 6 8 1018.3 1017.4 0.0
28/03:30pm 27.0 24.5 9.8 34 9.6 SE 13 20 7 11 1018.4 1017.5 0.0
28/03:00pm 27.5 25.2 8.9 31 10.3 S 11 19 6 10 1018.4 1017.5 0.0
28/02:30pm 26.9 24.8 9.7 34 9.6 ESE 11 20 6 11 1018.7 1017.8 0.0
28/02:00pm 26.8 24.4 10.1 35 9.4 ESE 13 20 7 11 1018.8 1017.9 0.0
28/01:30pm 26.9 25.4 10.6 36 9.3 ESE 9 19 5 10 1019.1 1018.2 0.0
28/01:00pm 26.6 24.2 9.9 35 9.3 ESE 13 20 7 11 1019.6 1018.6 0.0
28/12:30pm 25.8 23.3 11.2 40 8.3 SE 15 26 8 14 1020.0 1019.0 0.0
28/12:00pm 25.1 22.7 11.3 42 7.8 SE 15 22 8 12 1020.5 1019.5 0.0
28/11:30am 25.1 23.2 13.0 47 7.1 SE 15 20 8 11 1020.9 1019.9 0.0
28/11:00am 23.9 22.9 14.6 56 5.6 ESE 13 20 7 11 1021.2 1020.2 0.0
28/10:30am 22.7 21.9 15.0 61 4.6 SSE 13 19 7 10 1021.4 1020.4 0.0
28/10:00am 22.1 21.3 15.2 65 4.1 SSE 13 20 7 11 1021.5 1020.5 0.0
28/09:30am 21.3 19.8 15.2 68 3.6 SE 17 20 9 11 1021.5 1020.5 0.0
28/09:00am 20.2 19.9 15.4 74 2.9 SE 11 17 6 9 1021.5 1020.5 0.0
28/08:30am 18.4 18.3 14.9 80 2.1 SSE 9 15 5 8 1021.4 1020.4 0.0
28/08:00am 16.7 16.4 14.3 86 1.4 SSE 9 11 5 6 1021.2 1020.2 0.0
28/07:30am 15.2 16.2 14.4 95 0.5 NNE 2 6 1 3 1020.9 1019.9 0.0
28/07:00am 13.6 13.8 13.1 97 0.3 N 4 9 2 5 1020.7 1019.7 0.0
28/06:30am 12.6 12.9 12.1 97 0.3 W 2 6 1 3 1020.4 1019.4 0.0
28/06:00am 12.7 13.4 12.2 97 0.3 CALM 0 0 0 0 1020.2 1019.2 0.0
28/05:30am 12.5 12.3 11.9 96 0.3 NNE 4 6 2 3 1020.0 1019.0 0.0
28/05:00am 12.3 12.0 11.5 95 0.4 NNW 4 7 2 4 1019.7 1018.7 0.0
28/04:30am 13.0 12.9 12.2 95 0.4 N 4 6 2 3 1019.5 1018.5 0.0
28/04:00am 13.6 13.2 12.5 93 0.6 W 6 7 3 4 1019.1 1018.2 0.0
28/03:30am 13.8 13.4 12.9 94 0.5 WSW 7 9 4 5 1019.0 1018.1 0.0
28/03:00am 13.7 13.2 12.8 94 0.5 W 7 9 4 5 1018.9 1018.0 0.0
28/02:30am 14.1 14.7 13.0 93 0.6 W 2 6 1 3 1019.0 1018.1 0.0
28/02:00am 14.9 14.6 13.3 90 0.9 WSW 7 11 4 6 1019.3 1018.3 0.0
28/01:30am 15.5 15.4 14.0 91 0.9 SW 7 7 4 4 1019.4 1018.4 0.0
28/01:00am 15.7 15.8 13.9 89 1.0 SSW 6 9 3 5 1019.5 1018.5 0.0
28/12:30am 15.5 15.5 13.7 89 1.0 SSW 6 9 3 5 1019.7 1018.7 0.0
28/12:00am 16.1 16.7 14.3 89 1.0 S 4 7 2 4 1019.7 1018.7 0.0
 
Date/Time
WST
Temp
°C
App
Temp
°C
Dew
Point
Rel
Hum
%
Delta-T
°C
Wind Press
QNH
hPa
Press
MSL
hPa
Rain
since 9 am
mm
Dir
 
Spd
km/h
Gust
km/h
Spd
kts
Gust
kts
27/11:30pm 16.5 16.7 14.7 89 1.0 SSE 7 11 4 6 1019.7 1018.7 0.0
27/11:00pm 16.8 16.7 15.0 89 1.0 SSE 9 13 5 7 1019.8 1018.8 0.0
27/10:30pm 16.8 16.7 15.0 89 1.1 SSE 9 13 5 7 1020.1 1019.1 0.0

Other Formats:

Comma delimited format used in spreadsheet applications
http://www.bom.gov.au/fwo/IDW60801/IDW60801.95625.axf

JavaScript Object Notation format (JSON) in row-major order
http://www.bom.gov.au/fwo/IDW60801/IDW60801.95625.json